sensor_id;sensor_type;location;lat;lon;timestamp;pressure;altitude;pressure_sealevel;temperature;humidity
26697;BME280;14312;52.614;13.496;2024-03-07T00:00:39;101995.81;;;9.75;62.98
26697;BME280;14312;52.614;13.496;2024-03-07T00:03:25;101991.31;;;9.76;63.06
26697;BME280;14312;52.614;13.496;2024-03-07T00:06:11;101998.69;;;9.74;63.03
26697;BME280;14312;52.614;13.496;2024-03-07T00:08:57;101998.28;;;9.77;62.97
26697;BME280;14312;52.614;13.496;2024-03-07T00:11:43;101994.81;;;9.76;62.90
26697;BME280;14312;52.614;13.496;2024-03-07T00:14:33;102000.75;;;9.78;63.51
26697;BME280;14312;52.614;13.496;2024-03-07T00:17:21;101995.44;;;9.78;63.23
26697;BME280;14312;52.614;13.496;2024-03-07T00:20:09;101991.94;;;9.78;62.94
26697;BME280;14312;52.614;13.496;2024-03-07T00:22:59;101999.13;;;9.77;63.05
26697;BME280;14312;52.614;13.496;2024-03-07T00:25:46;101999.13;;;9.77;62.88
26697;BME280;14312;52.614;13.496;2024-03-07T00:28:34;101997.47;;;9.76;63.05
26697;BME280;14312;52.614;13.496;2024-03-07T00:31:25;101993.16;;;9.75;62.86
26697;BME280;14312;52.614;13.496;2024-03-07T00:34:11;101985.59;;;9.72;62.81
26697;BME280;14312;52.614;13.496;2024-03-07T00:36:57;101987.63;;;9.70;62.69
26697;BME280;14312;52.614;13.496;2024-03-07T00:39:45;101994.97;;;9.68;63.00
26697;BME280;14312;52.614;13.496;2024-03-07T00:42:30;101992.50;;;9.67;63.01
26697;BME280;14312;52.614;13.496;2024-03-07T00:45:16;101999.91;;;9.65;62.86
26697;BME280;14312;52.614;13.496;2024-03-07T00:48:03;102004.41;;;9.64;62.86
26697;BME280;14312;52.614;13.496;2024-03-07T00:50:49;101996.59;;;9.63;63.08
26697;BME280;14312;52.614;13.496;2024-03-07T00:53:35;101999.47;;;9.61;63.50
26697;BME280;14312;52.614;13.496;2024-03-07T00:56:21;101988.81;;;9.61;63.08
26697;BME280;14312;52.614;13.496;2024-03-07T00:59:07;101986.34;;;9.60;63.30
26697;BME280;14312;52.614;13.496;2024-03-07T01:01:53;101986.34;;;9.60;63.25
26697;BME280;14312;52.614;13.496;2024-03-07T01:04:39;101990.84;;;9.59;63.10
26697;BME280;14312;52.614;13.496;2024-03-07T01:07:25;101992.91;;;9.57;63.18
26697;BME280;14312;52.614;13.496;2024-03-07T01:10:16;101986.97;;;9.55;63.20
26697;BME280;14312;52.614;13.496;2024-03-07T01:13:02;101988.16;;;9.53;63.20
26697;BME280;14312;52.614;13.496;2024-03-07T01:15:51;101984.09;;;9.50;63.22
26697;BME280;14312;52.614;13.496;2024-03-07T01:18:37;101985.09;;;9.49;63.03
26697;BME280;14312;52.614;13.496;2024-03-07T01:21:23;101988.78;;;9.48;63.33
26697;BME280;14312;52.614;13.496;2024-03-07T01:24:09;101991.63;;;9.47;63.37
26697;BME280;14312;52.614;13.496;2024-03-07T01:26:55;101996.34;;;9.45;63.37
26697;BME280;14312;52.614;13.496;2024-03-07T01:29:41;101992.88;;;9.44;63.29
26697;BME280;14312;52.614;13.496;2024-03-07T01:32:28;101989.56;;;9.42;63.29
26697;BME280;14312;52.614;13.496;2024-03-07T01:35:16;101986.47;;;9.38;63.10
26697;BME280;14312;52.614;13.496;2024-03-07T01:38:02;101987.09;;;9.34;62.93
26697;BME280;14312;52.614;13.496;2024-03-07T01:40:48;101987.47;;;9.31;62.61
26697;BME280;14312;52.614;13.496;2024-03-07T01:43:34;101990.31;;;9.23;62.72
26697;BME280;14312;52.614;13.496;2024-03-07T01:46:20;101993.16;;;9.15;62.91
26697;BME280;14312;52.614;13.496;2024-03-07T01:49:06;101989.00;;;9.06;62.93
26697;BME280;14312;52.614;13.496;2024-03-07T01:51:53;101992.44;;;8.99;62.94
26697;BME280;14312;52.614;13.496;2024-03-07T01:54:39;101985.63;;;8.90;62.85
26697;BME280;14312;52.614;13.496;2024-03-07T01:57:25;101992.75;;;8.83;63.10
26697;BME280;14312;52.614;13.496;2024-03-07T02:00:11;101988.41;;;8.76;63.01
26697;BME280;14312;52.614;13.496;2024-03-07T02:02:58;101989.59;;;8.67;63.26
26697;BME280;14312;52.614;13.496;2024-03-07T02:05:45;101990.31;;;8.60;63.51
26697;BME280;14312;52.614;13.496;2024-03-07T02:08:31;101993.19;;;8.59;63.57
26697;BME280;14312;52.614;13.496;2024-03-07T02:11:17;101992.94;;;8.54;63.59
26697;BME280;14312;52.614;13.496;2024-03-07T02:14:03;101990.69;;;8.51;63.64
26697;BME280;14312;52.614;13.496;2024-03-07T02:16:49;101981.44;;;8.47;63.71
26697;BME280;14312;52.614;13.496;2024-03-07T02:19:35;101974.25;;;8.41;63.91
26697;BME280;14312;52.614;13.496;2024-03-07T02:22:21;101981.22;;;8.42;63.67
26697;BME280;14312;52.614;13.496;2024-03-07T02:25:08;101980.56;;;8.40;63.58
26697;BME280;14312;52.614;13.496;2024-03-07T02:27:55;101979.97;;;8.38;63.96
26697;BME280;14312;52.614;13.496;2024-03-07T02:30:41;101973.38;;;8.34;63.99
26697;BME280;14312;52.614;13.496;2024-03-07T02:33:27;101978.22;;;8.30;63.96
26697;BME280;14312;52.614;13.496;2024-03-07T02:36:13;101977.78;;;8.26;63.98
26697;BME280;14312;52.614;13.496;2024-03-07T02:39:00;101967.56;;;8.23;63.77
26697;BME280;14312;52.614;13.496;2024-03-07T02:41:46;101973.22;;;8.20;63.79
26697;BME280;14312;52.614;13.496;2024-03-07T02:44:33;101969.50;;;8.15;63.87
26697;BME280;14312;52.614;13.496;2024-03-07T02:47:20;101957.19;;;8.07;63.74
26697;BME280;14312;52.614;13.496;2024-03-07T02:50:11;101966.53;;;8.03;63.52
26697;BME280;14312;52.614;13.496;2024-03-07T02:52:57;101963.63;;;7.98;63.77
26697;BME280;14312;52.614;13.496;2024-03-07T02:55:43;101967.06;;;7.92;63.71
26697;BME280;14312;52.614;13.496;2024-03-07T02:58:29;101964.34;;;7.85;63.69
26697;BME280;14312;52.614;13.496;2024-03-07T03:01:15;101968.56;;;7.80;63.83
26697;BME280;14312;52.614;13.496;2024-03-07T03:04:01;101966.69;;;7.74;63.94
26697;BME280;14312;52.614;13.496;2024-03-07T03:06:48;101955.78;;;7.69;63.64
26697;BME280;14312;52.614;13.496;2024-03-07T03:09:34;101960.84;;;7.64;63.78
26697;BME280;14312;52.614;13.496;2024-03-07T03:12:25;101962.25;;;7.60;64.05
26697;BME280;14312;52.614;13.496;2024-03-07T03:15:11;101972.19;;;7.58;64.14
26697;BME280;14312;52.614;13.496;2024-03-07T03:17:58;101974.22;;;7.56;64.53
26697;BME280;14312;52.614;13.496;2024-03-07T03:20:46;101968.25;;;7.54;64.44
26697;BME280;14312;52.614;13.496;2024-03-07T03:23:33;101972.13;;;7.51;64.31
26697;BME280;14312;52.614;13.496;2024-03-07T03:26:20;101971.66;;;7.47;64.25
26697;BME280;14312;52.614;13.496;2024-03-07T03:29:07;101976.97;;;7.47;64.36
26697;BME280;14312;52.614;13.496;2024-03-07T03:31:55;101972.06;;;7.44;64.46
26697;BME280;14312;52.614;13.496;2024-03-07T03:34:42;101979.38;;;7.42;64.37
26697;BME280;14312;52.614;13.496;2024-03-07T03:37:28;101974.41;;;7.39;64.09
26697;BME280;14312;52.614;13.496;2024-03-07T03:40:14;101983.41;;;7.38;64.31
26697;BME280;14312;52.614;13.496;2024-03-07T03:43:00;101991.72;;;7.35;64.20
26697;BME280;14312;52.614;13.496;2024-03-07T03:45:46;101987.81;;;7.31;64.32
26697;BME280;14312;52.614;13.496;2024-03-07T03:48:33;101986.50;;;7.27;64.24
26697;BME280;14312;52.614;13.496;2024-03-07T03:51:19;101992.19;;;7.24;64.40
26697;BME280;14312;52.614;13.496;2024-03-07T03:54:07;101990.56;;;7.23;64.16
26697;BME280;14312;52.614;13.496;2024-03-07T03:56:53;101987.63;;;7.18;64.35
26697;BME280;14312;52.614;13.496;2024-03-07T03:59:42;101994.13;;;7.16;64.60
26697;BME280;14312;52.614;13.496;2024-03-07T04:02:30;101991.00;;;7.12;64.32
26697;BME280;14312;52.614;13.496;2024-03-07T04:05:17;101995.03;;;7.08;64.34
26697;BME280;14312;52.614;13.496;2024-03-07T04:08:04;101997.22;;;7.04;64.50
26697;BME280;14312;52.614;13.496;2024-03-07T04:10:51;101998.59;;;7.00;64.38
26697;BME280;14312;52.614;13.496;2024-03-07T04:13:37;101991.38;;;6.94;64.58
26697;BME280;14312;52.614;13.496;2024-03-07T04:16:24;101985.63;;;6.91;64.62
26697;BME280;14312;52.614;13.496;2024-03-07T04:19:09;101996.59;;;6.88;64.63
26697;BME280;14312;52.614;13.496;2024-03-07T04:21:55;101989.66;;;6.87;64.10
26697;BME280;14312;52.614;13.496;2024-03-07T04:24:41;101999.97;;;6.82;64.46
26697;BME280;14312;52.614;13.496;2024-03-07T04:27:28;102002.16;;;6.78;64.45
26697;BME280;14312;52.614;13.496;2024-03-07T04:30:14;101996.41;;;6.75;64.37
26697;BME280;14312;52.614;13.496;2024-03-07T04:33:02;101997.75;;;6.71;64.40
26697;BME280;14312;52.614;13.496;2024-03-07T04:35:48;101999.13;;;6.66;64.25
26697;BME280;14312;52.614;13.496;2024-03-07T04:38:34;102003.13;;;6.62;64.53
26697;BME280;14312;52.614;13.496;2024-03-07T04:41:21;102004.00;;;6.55;64.45
26697;BME280;14312;52.614;13.496;2024-03-07T04:44:07;102006.88;;;6.53;64.44
26697;BME280;14312;52.614;13.496;2024-03-07T04:46:53;101995.97;;;6.48;64.37
26697;BME280;14312;52.614;13.496;2024-03-07T04:49:42;102003.63;;;6.43;64.37
26697;BME280;14312;52.614;13.496;2024-03-07T04:52:29;102006.63;;;6.40;64.58
26697;BME280;14312;52.614;13.496;2024-03-07T04:55:15;102002.69;;;6.36;64.78
26697;BME280;14312;52.614;13.496;2024-03-07T04:58:01;102010.00;;;6.34;64.45
26697;BME280;14312;52.614;13.496;2024-03-07T05:00:47;102005.06;;;6.31;64.55
26697;BME280;14312;52.614;13.496;2024-03-07T05:03:33;102003.75;;;6.27;64.79
26697;BME280;14312;52.614;13.496;2024-03-07T05:06:19;102010.25;;;6.24;64.80
26697;BME280;14312;52.614;13.496;2024-03-07T05:09:08;102005.31;;;6.21;64.88
26697;BME280;14312;52.614;13.496;2024-03-07T05:11:54;102015.44;;;6.18;64.73
26697;BME280;14312;52.614;13.496;2024-03-07T05:14:40;102021.06;;;6.15;64.87
26697;BME280;14312;52.614;13.496;2024-03-07T05:17:26;102020.56;;;6.11;64.76
26697;BME280;14312;52.614;13.496;2024-03-07T05:20:14;102025.06;;;6.11;64.68
26697;BME280;14312;52.614;13.496;2024-03-07T05:23:00;102020.13;;;6.08;65.06
26697;BME280;14312;52.614;13.496;2024-03-07T05:25:47;102025.75;;;6.05;64.78
26697;BME280;14312;52.614;13.496;2024-03-07T05:28:35;102028.75;;;6.02;65.03
26697;BME280;14312;52.614;13.496;2024-03-07T05:31:22;102028.09;;;6.00;64.64
26697;BME280;14312;52.614;13.496;2024-03-07T05:34:08;102018.69;;;5.97;64.88
26697;BME280;14312;52.614;13.496;2024-03-07T05:36:54;102026.81;;;5.96;64.80
26697;BME280;14312;52.614;13.496;2024-03-07T05:39:40;102029.81;;;5.93;64.71
26697;BME280;14312;52.614;13.496;2024-03-07T05:42:26;102032.81;;;5.89;65.09
26697;BME280;14312;52.614;13.496;2024-03-07T05:45:12;102031.16;;;5.88;65.02
26697;BME280;14312;52.614;13.496;2024-03-07T05:48:14;102033.13;;;5.86;65.74
26697;BME280;14312;52.614;13.496;2024-03-07T05:51:00;102039.78;;;5.82;65.19
26697;BME280;14312;52.614;13.496;2024-03-07T05:53:46;102046.88;;;5.82;65.12
26697;BME280;14312;52.614;13.496;2024-03-07T05:56:36;102044.41;;;5.80;65.24
26697;BME280;14312;52.614;13.496;2024-03-07T05:59:22;102039.44;;;5.77;65.23
26697;BME280;14312;52.614;13.496;2024-03-07T06:02:08;102043.09;;;5.76;65.10
26697;BME280;14312;52.614;13.496;2024-03-07T06:04:54;102047.53;;;5.76;65.10
26697;BME280;14312;52.614;13.496;2024-03-07T06:07:40;102049.41;;;5.75;65.25
26697;BME280;14312;52.614;13.496;2024-03-07T06:10:26;102043.78;;;5.70;65.25
26697;BME280;14312;52.614;13.496;2024-03-07T06:13:14;102050.38;;;5.74;65.22
26697;BME280;14312;52.614;13.496;2024-03-07T06:16:01;102055.69;;;5.74;65.33
26697;BME280;14312;52.614;13.496;2024-03-07T06:18:51;102049.41;;;5.75;65.48
26697;BME280;14312;52.614;13.496;2024-03-07T06:21:39;102048.38;;;5.76;65.40
26697;BME280;14312;52.614;13.496;2024-03-07T06:24:25;102059.63;;;5.78;65.26
26697;BME280;14312;52.614;13.496;2024-03-07T06:27:13;102059.28;;;5.81;65.40
26697;BME280;14312;52.614;13.496;2024-03-07T06:30:23;102055.44;;;5.84;65.66
26697;BME280;14312;52.614;13.496;2024-03-07T06:33:09;102060.41;;;5.87;65.74
26697;BME280;14312;52.614;13.496;2024-03-07T06:35:55;102064.19;;;5.93;65.78
26697;BME280;14312;52.614;13.496;2024-03-07T06:38:41;102060.22;;;5.97;66.02
26697;BME280;14312;52.614;13.496;2024-03-07T06:41:27;102061.50;;;6.01;65.63
26697;BME280;14312;52.614;13.496;2024-03-07T06:44:13;102063.63;;;6.05;65.86
26697;BME280;14312;52.614;13.496;2024-03-07T06:46:59;102064.94;;;6.09;65.84
26697;BME280;14312;52.614;13.496;2024-03-07T06:49:45;102068.69;;;6.15;65.80
26697;BME280;14312;52.614;13.496;2024-03-07T06:52:31;102063.88;;;6.18;65.94
26697;BME280;14312;52.614;13.496;2024-03-07T06:55:18;102067.66;;;6.24;66.03
26697;BME280;14312;52.614;13.496;2024-03-07T06:58:04;102075.88;;;6.29;66.19
26697;BME280;14312;52.614;13.496;2024-03-07T07:00:50;102077.00;;;6.35;66.06
26697;BME280;14312;52.614;13.496;2024-03-07T07:03:43;102082.56;;;6.40;65.82
26697;BME280;14312;52.614;13.496;2024-03-07T07:06:29;102079.41;;;6.44;66.18
26697;BME280;14312;52.614;13.496;2024-03-07T07:09:16;102073.75;;;6.47;65.76
26697;BME280;14312;52.614;13.496;2024-03-07T07:12:05;102078.81;;;6.57;65.84
26697;BME280;14312;52.614;13.496;2024-03-07T07:14:51;102081.75;;;6.62;65.73
26697;BME280;14312;52.614;13.496;2024-03-07T07:17:37;102083.88;;;6.66;65.71
26697;BME280;14312;52.614;13.496;2024-03-07T07:20:23;102079.84;;;6.71;65.87
26697;BME280;14312;52.614;13.496;2024-03-07T07:23:09;102082.78;;;6.76;65.54
26697;BME280;14312;52.614;13.496;2024-03-07T07:25:55;102087.75;;;6.79;65.47
26697;BME280;14312;52.614;13.496;2024-03-07T07:28:41;102087.41;;;6.82;65.48
26697;BME280;14312;52.614;13.496;2024-03-07T07:31:27;102088.66;;;6.86;65.50
26697;BME280;14312;52.614;13.496;2024-03-07T07:34:13;102086.28;;;6.91;65.13
26697;BME280;14312;52.614;13.496;2024-03-07T07:36:59;102085.94;;;6.94;65.35
26697;BME280;14312;52.614;13.496;2024-03-07T07:39:45;102081.09;;;6.97;65.23
26697;BME280;14312;52.614;13.496;2024-03-07T07:42:31;102088.53;;;7.02;64.97
26697;BME280;14312;52.614;13.496;2024-03-07T07:45:19;102091.78;;;7.04;65.29
26697;BME280;14312;52.614;13.496;2024-03-07T07:48:06;102087.78;;;7.08;65.12
26697;BME280;14312;52.614;13.496;2024-03-07T07:50:52;102087.41;;;7.11;64.94
26697;BME280;14312;52.614;13.496;2024-03-07T07:53:38;102076.91;;;7.18;65.58
26697;BME280;14312;52.614;13.496;2024-03-07T07:56:24;102085.59;;;7.26;65.84
26697;BME280;14312;52.614;13.496;2024-03-07T07:59:10;102085.34;;;7.36;66.20
26697;BME280;14312;52.614;13.496;2024-03-07T08:01:57;102085.34;;;7.51;66.63
26697;BME280;14312;52.614;13.496;2024-03-07T08:04:42;102084.13;;;7.68;66.93
26697;BME280;14312;52.614;13.496;2024-03-07T08:07:28;102078.25;;;7.87;66.76
26697;BME280;14312;52.614;13.496;2024-03-07T08:10:14;102076.47;;;8.09;67.23
26697;BME280;14312;52.614;13.496;2024-03-07T08:13:02;102083.25;;;8.33;67.18
26697;BME280;14312;52.614;13.496;2024-03-07T08:15:49;102090.69;;;8.58;67.09
26697;BME280;14312;52.614;13.496;2024-03-07T08:18:35;102087.59;;;8.83;67.12
26697;BME280;14312;52.614;13.496;2024-03-07T08:21:21;102090.03;;;9.06;67.02
26697;BME280;14312;52.614;13.496;2024-03-07T08:24:09;102086.53;;;9.33;67.25
26697;BME280;14312;52.614;13.496;2024-03-07T08:26:56;102081.31;;;9.59;67.02
26697;BME280;14312;52.614;13.496;2024-03-07T08:29:42;102090.47;;;9.85;66.77
26697;BME280;14312;52.614;13.496;2024-03-07T08:32:29;102087.66;;;10.06;66.54
26697;BME280;14312;52.614;13.496;2024-03-07T08:35:15;102081.19;;;10.28;66.36
26697;BME280;14312;52.614;13.496;2024-03-07T08:38:02;102084.72;;;10.48;66.01
26697;BME280;14312;52.614;13.496;2024-03-07T08:40:48;102089.47;;;10.73;65.68
26697;BME280;14312;52.614;13.496;2024-03-07T08:43:34;102083.91;;;10.94;65.16
26697;BME280;14312;52.614;13.496;2024-03-07T08:46:20;102083.69;;;11.15;64.58
26697;BME280;14312;52.614;13.496;2024-03-07T08:49:06;102090.19;;;11.32;64.20
26697;BME280;14312;52.614;13.496;2024-03-07T08:51:52;102090.78;;;11.48;63.68
26697;BME280;14312;52.614;13.496;2024-03-07T08:54:38;102088.69;;;11.63;63.16
26697;BME280;14312;52.614;13.496;2024-03-07T08:57:24;102096.69;;;11.76;62.73
26697;BME280;14312;52.614;13.496;2024-03-07T09:00:10;102091.28;;;11.89;62.32
26697;BME280;14312;52.614;13.496;2024-03-07T09:02:59;102100.88;;;12.03;61.88
26697;BME280;14312;52.614;13.496;2024-03-07T09:05:46;102093.22;;;12.13;61.61
26697;BME280;14312;52.614;13.496;2024-03-07T09:08:32;102079.16;;;12.25;61.56
26697;BME280;14312;52.614;13.496;2024-03-07T09:11:18;102086.66;;;12.41;61.55
26697;BME280;14312;52.614;13.496;2024-03-07T09:14:03;102083.47;;;12.57;61.26
26697;BME280;14312;52.614;13.496;2024-03-07T09:16:55;102080.03;;;12.75;61.05
26697;BME280;14312;52.614;13.496;2024-03-07T09:19:41;102080.31;;;12.91;60.82
26697;BME280;14312;52.614;13.496;2024-03-07T09:22:27;102067.84;;;13.04;60.26
26697;BME280;14312;52.614;13.496;2024-03-07T09:25:15;102078.38;;;13.23;60.07
26697;BME280;14312;52.614;13.496;2024-03-07T09:28:02;102076.97;;;13.39;59.79
26697;BME280;14312;52.614;13.496;2024-03-07T09:30:48;102078.84;;;13.57;59.34
26697;BME280;14312;52.614;13.496;2024-03-07T09:33:34;102072.03;;;13.72;59.08
26697;BME280;14312;52.614;13.496;2024-03-07T09:36:20;102076.78;;;13.89;58.79
26697;BME280;14312;52.614;13.496;2024-03-07T09:39:07;102067.53;;;14.03;58.30
26697;BME280;14312;52.614;13.496;2024-03-07T09:41:54;102068.97;;;14.17;58.10
26697;BME280;14312;52.614;13.496;2024-03-07T09:44:42;102069.97;;;14.34;57.65
26697;BME280;14312;52.614;13.496;2024-03-07T09:47:28;102063.59;;;14.47;56.96
26697;BME280;14312;52.614;13.496;2024-03-07T09:50:16;102073.31;;;14.60;56.43
26697;BME280;14312;52.614;13.496;2024-03-07T09:53:04;102062.47;;;14.66;56.67
26697;BME280;14312;52.614;13.496;2024-03-07T09:55:50;102068.41;;;14.80;55.91
26697;BME280;14312;52.614;13.496;2024-03-07T09:58:36;102061.06;;;14.87;55.44
26697;BME280;14312;52.614;13.496;2024-03-07T10:01:25;102060.28;;;14.98;54.71
26697;BME280;14312;52.614;13.496;2024-03-07T10:04:12;102060.72;;;15.07;54.97
26697;BME280;14312;52.614;13.496;2024-03-07T10:07:00;102061.19;;;15.15;54.03
26697;BME280;14312;52.614;13.496;2024-03-07T10:09:47;102062.34;;;15.19;53.72
26697;BME280;14312;52.614;13.496;2024-03-07T10:12:33;102054.03;;;15.21;53.09
26697;BME280;14312;52.614;13.496;2024-03-07T10:15:19;102053.22;;;15.20;52.60
26697;BME280;14312;52.614;13.496;2024-03-07T10:18:07;102058.50;;;15.15;51.27
26697;BME280;14312;52.614;13.496;2024-03-07T10:20:54;102058.75;;;15.02;50.75
26697;BME280;14312;52.614;13.496;2024-03-07T10:23:41;102049.75;;;14.85;50.64
26697;BME280;14312;52.614;13.496;2024-03-07T10:26:26;102047.63;;;14.64;50.20
26697;BME280;14312;52.614;13.496;2024-03-07T10:29:13;102049.25;;;14.41;50.05
26697;BME280;14312;52.614;13.496;2024-03-07T10:31:59;102050.81;;;14.19;49.90
26697;BME280;14312;52.614;13.496;2024-03-07T10:34:45;102051.09;;;13.99;49.55
26697;BME280;14312;52.614;13.496;2024-03-07T10:37:34;102048.44;;;13.81;49.50
26697;BME280;14312;52.614;13.496;2024-03-07T10:40:23;102047.06;;;13.60;49.68
26697;BME280;14312;52.614;13.496;2024-03-07T10:43:11;102047.66;;;13.44;50.08
26697;BME280;14312;52.614;13.496;2024-03-07T10:45:59;102051.53;;;13.30;50.40
26697;BME280;14312;52.614;13.496;2024-03-07T10:48:55;102045.88;;;13.20;50.74
26697;BME280;14312;52.614;13.496;2024-03-07T10:54:57;102032.84;;;13.05;50.22
26697;BME280;14312;52.614;13.496;2024-03-07T10:57:59;102030.22;;;12.99;49.94
26697;BME280;14312;52.614;13.496;2024-03-07T11:00:48;102023.09;;;12.92;50.92
26697;BME280;14312;52.614;13.496;2024-03-07T11:03:36;102018.16;;;12.89;50.80
26697;BME280;14312;52.614;13.496;2024-03-07T11:06:24;102034.66;;;12.86;50.99
26697;BME280;14312;52.614;13.496;2024-03-07T11:09:10;102028.72;;;12.84;50.84
26697;BME280;14312;52.614;13.496;2024-03-07T11:11:57;102027.69;;;12.85;50.97
26697;BME280;14312;52.614;13.496;2024-03-07T11:14:44;102033.81;;;12.86;51.25
26697;BME280;14312;52.614;13.496;2024-03-07T11:17:32;102029.91;;;12.88;51.35
26697;BME280;14312;52.614;13.496;2024-03-07T11:20:23;102026.13;;;12.96;51.31
26697;BME280;14312;52.614;13.496;2024-03-07T11:23:29;102019.56;;;13.17;51.24
26697;BME280;14312;52.614;13.496;2024-03-07T11:26:15;102014.34;;;13.40;51.59
26697;BME280;14312;52.614;13.496;2024-03-07T11:29:00;102009.38;;;13.73;51.50
26697;BME280;14312;52.614;13.496;2024-03-07T11:31:47;102001.47;;;14.08;50.93
26697;BME280;14312;52.614;13.496;2024-03-07T11:34:37;101990.81;;;14.43;49.98
26697;BME280;14312;52.614;13.496;2024-03-07T11:37:41;101994.91;;;14.81;48.45
26697;BME280;14312;52.614;13.496;2024-03-07T11:43:19;101990.03;;;15.41;48.72
26697;BME280;14312;52.614;13.496;2024-03-07T11:46:05;101980.03;;;15.65;48.54
26697;BME280;14312;52.614;13.496;2024-03-07T11:48:57;101982.63;;;15.88;48.39
26697;BME280;14312;52.614;13.496;2024-03-07T11:51:45;101979.81;;;16.12;47.97
26697;BME280;14312;52.614;13.496;2024-03-07T11:54:31;101979.63;;;16.35;47.89
26697;BME280;14312;52.614;13.496;2024-03-07T11:57:19;101969.50;;;16.59;47.65
26697;BME280;14312;52.614;13.496;2024-03-07T12:00:05;101967.94;;;16.79;46.84
26697;BME280;14312;52.614;13.496;2024-03-07T12:02:57;101960.88;;;16.95;46.46
26697;BME280;14312;52.614;13.496;2024-03-07T12:05:44;101967.78;;;17.08;45.95
26697;BME280;14312;52.614;13.496;2024-03-07T12:08:31;101956.88;;;17.19;45.52
26697;BME280;14312;52.614;13.496;2024-03-07T12:11:17;101971.91;;;17.37;45.76
26697;BME280;14312;52.614;13.496;2024-03-07T12:14:03;101956.97;;;17.51;45.61
26697;BME280;14312;52.614;13.496;2024-03-07T12:16:50;101955.56;;;17.71;45.68
26697;BME280;14312;52.614;13.496;2024-03-07T12:19:38;101952.00;;;17.92;45.08
26697;BME280;14312;52.614;13.496;2024-03-07T12:22:25;101951.63;;;18.10;44.32
26697;BME280;14312;52.614;13.496;2024-03-07T12:25:11;101941.25;;;18.29;44.22
26697;BME280;14312;52.614;13.496;2024-03-07T12:28:10;101944.31;;;18.48;43.54
26697;BME280;14312;52.614;13.496;2024-03-07T12:30:57;101937.41;;;18.57;43.58
26697;BME280;14312;52.614;13.496;2024-03-07T12:33:43;101931.00;;;18.68;43.39
26697;BME280;14312;52.614;13.496;2024-03-07T12:36:33;101932.16;;;18.87;43.63
26697;BME280;14312;52.614;13.496;2024-03-07T12:39:33;101935.50;;;19.09;42.95
26697;BME280;14312;52.614;13.496;2024-03-07T12:42:21;101930.16;;;19.25;43.37
26697;BME280;14312;52.614;13.496;2024-03-07T12:45:07;101923.44;;;19.42;42.82
26697;BME280;14312;52.614;13.496;2024-03-07T12:48:00;101924.31;;;19.58;42.28
26697;BME280;14312;52.614;13.496;2024-03-07T12:50:51;101921.06;;;19.71;41.89
26697;BME280;14312;52.614;13.496;2024-03-07T12:53:40;101913.50;;;19.83;41.83
26697;BME280;14312;52.614;13.496;2024-03-07T12:56:26;101913.75;;;19.97;41.79
26697;BME280;14312;52.614;13.496;2024-03-07T12:59:13;101909.44;;;20.06;41.32
26697;BME280;14312;52.614;13.496;2024-03-07T13:01:59;101903.47;;;20.14;40.99
26697;BME280;14312;52.614;13.496;2024-03-07T13:04:45;101906.47;;;20.23;40.92
26697;BME280;14312;52.614;13.496;2024-03-07T13:07:31;101907.50;;;20.32;40.95
26697;BME280;14312;52.614;13.496;2024-03-07T13:10:18;101906.97;;;20.40;40.60
26697;BME280;14312;52.614;13.496;2024-03-07T13:13:04;101908.59;;;20.51;40.61
26697;BME280;14312;52.614;13.496;2024-03-07T13:15:50;101904.75;;;20.62;40.55
26697;BME280;14312;52.614;13.496;2024-03-07T13:18:40;101893.91;;;20.73;40.12
26697;BME280;14312;52.614;13.496;2024-03-07T13:21:26;101900.91;;;20.79;39.74
26697;BME280;14312;52.614;13.496;2024-03-07T13:24:13;101896.03;;;20.81;39.31
26697;BME280;14312;52.614;13.496;2024-03-07T13:26:59;101895.53;;;20.74;39.04
26697;BME280;14312;52.614;13.496;2024-03-07T13:29:45;101892.28;;;20.61;38.62
26697;BME280;14312;52.614;13.496;2024-03-07T13:32:30;101886.94;;;20.51;38.82
26697;BME280;14312;52.614;13.496;2024-03-07T13:35:16;101890.19;;;20.43;38.84
26697;BME280;14312;52.614;13.496;2024-03-07T13:38:05;101897.22;;;20.39;38.92
26697;BME280;14312;52.614;13.496;2024-03-07T13:40:52;101886.94;;;20.41;39.17
26697;BME280;14312;52.614;13.496;2024-03-07T13:43:38;101888.56;;;20.52;38.79
26697;BME280;14312;52.614;13.496;2024-03-07T13:46:24;101880.66;;;20.56;38.55
26697;BME280;14312;52.614;13.496;2024-03-07T13:49:10;101885.25;;;20.60;38.27
26697;BME280;14312;52.614;13.496;2024-03-07T13:51:59;101888.50;;;20.62;37.79
26697;BME280;14312;52.614;13.496;2024-03-07T13:54:49;101882.00;;;20.63;37.90
26697;BME280;14312;52.614;13.496;2024-03-07T13:57:46;101876.84;;;20.62;36.97
26697;BME280;14312;52.614;13.496;2024-03-07T14:00:44;101879.06;;;20.60;36.79
26697;BME280;14312;52.614;13.496;2024-03-07T14:07:04;101867.09;;;20.66;37.16
26697;BME280;14312;52.614;13.496;2024-03-07T14:23:01;101865.72;;;20.68;37.16
26697;BME280;14312;52.614;13.496;2024-03-07T14:26:12;101866.53;;;20.69;36.52
26697;BME280;14312;52.614;13.496;2024-03-07T14:29:38;101870.59;;;20.71;36.34
26697;BME280;14312;52.614;13.496;2024-03-07T14:32:28;101856.78;;;20.73;37.35
26697;BME280;14312;52.614;13.496;2024-03-07T14:35:25;101859.19;;;20.80;36.06
26697;BME280;14312;52.614;13.496;2024-03-07T14:41:09;101856.22;;;20.76;36.85
26697;BME280;14312;52.614;13.496;2024-03-07T14:43:58;101858.13;;;20.70;36.99
26697;BME280;14312;52.614;13.496;2024-03-07T14:46:47;101847.84;;;20.67;36.95
26697;BME280;14312;52.614;13.496;2024-03-07T14:49:35;101852.75;;;20.60;37.04
26697;BME280;14312;52.614;13.496;2024-03-07T14:52:22;101835.97;;;20.53;36.88
26697;BME280;14312;52.614;13.496;2024-03-07T14:55:08;101835.47;;;20.46;36.83